Fascination — C6FM9 — position and weather

sailwx.info

Track history (hours):
 
Tides and Currents Weather Stations Pressure Air Temp Water Temp Dewpoint Dewpoint Depression Visibility Wind Speed Wind Dir Waves Ship Positions

Fascination

Operator: Carnival Cruise Lines

Last reported at 2019-Sep-17 07:57 UTC. Time now 2019-Sep-17 08:46 UTC.
Position N 18°03' W 063°35'.

Type: Ship. MMSI: 309682000.

Date/timePositionNaut miles runAvg speedWind from/ knotsBaromVisibWave heightAir tempDewpointWater temp
2019-Sep-17 07:57N 18°03' W 063°35'5 9.8
2019-Sep-17 07:25N 18°07' W 063°37'5 9.8
2019-Sep-17 06:55N 18°12' W 063°39'12 6.4
2019-Sep-17 05:00N 18°24' W 063°42'18 9.1 110 / 201010.010.8 28.023.727.0
2019-Sep-17 03:00N 18°18' W 064°00'3810.9 090 / 201012.0 5.4 28.025.225.0
2019-Sep-16 23:32N 18°10' W 064°39'410.3
2019-Sep-16 23:10N 18°10' W 064°43'210.3
2019-Sep-16 22:59N 18°10' W 064°44'510.5
2019-Sep-16 22:30N 18°11' W 064°50'510.3
2019-Sep-16 22:00N 18°14' W 064°54'510.0
2019-Sep-16 21:30N 18°19' W 064°55'1 1.9
2019-Sep-16 20:48N 18°20' W 064°55'0 0.0
2019-Sep-16 20:24N 18°20' W 064°55'0 0.0
2019-Sep-16 19:53N 18°20' W 064°55'0 0.0
2019-Sep-16 19:29N 18°20' W 064°55'0 0.0
2019-Sep-16 18:59N 18°20' W 064°55'0 0.0
2019-Sep-16 18:29N 18°20' W 064°55'0 0.0
2019-Sep-16 17:59N 18°20' W 064°55'0 0.0
2019-Sep-16 17:28N 18°20' W 064°55'0 0.0
2019-Sep-16 16:58N 18°20' W 064°55'0 0.0
2019-Sep-16 16:28N 18°20' W 064°55'0 0.0
2019-Sep-16 15:58N 18°20' W 064°55'0 0.0
2019-Sep-16 15:27N 18°20' W 064°55'0 0.0
2019-Sep-16 14:57N 18°20' W 064°55'0 0.0
2019-Sep-16 14:27N 18°20' W 064°55'0 0.0
2019-Sep-16 13:57N 18°20' W 064°55'0 0.0
2019-Sep-16 13:27N 18°20' W 064°55'0 0.0
2019-Sep-16 12:20N 18°20' W 064°55'0 0.0
2019-Sep-16 12:00N 18°20' W 064°55'0 0.0
2019-Sep-16 11:30N 18°20' W 064°55'0 0.0
2019-Sep-16 11:00N 18°20' W 064°55'0 0.9
2019-Sep-16 10:30N 18°20' W 064°56'3 6.9
2019-Sep-16 10:01N 18°17' W 064°57'5 9.2
2019-Sep-16 09:30N 18°17' W 065°02'5 9.7
2019-Sep-16 09:00N 18°19' W 065°07'5 9.2
2019-Sep-16 08:31N 18°22' W 065°10'510.1
2019-Sep-16 08:00N 18°27' W 065°11'5 9.4
2019-Sep-16 07:30N 18°31' W 065°12'5 9.0
2019-Sep-16 07:00N 18°36' W 065°12'510.4
2019-Sep-16 06:31N 18°41' W 065°13'510.4
2019-Sep-16 06:00N 18°46' W 065°14'510.2
2019-Sep-16 05:31N 18°51' W 065°15'510.4
2019-Sep-16 05:01N 18°56' W 065°16'5 9.6
2019-Sep-16 04:31N 18°58' W 065°21'510.5
2019-Sep-16 03:59N 18°58' W 065°27'710.4
2019-Sep-16 03:16N 18°58' W 065°35'414.9
2019-Sep-16 03:00N 18°54' W 065°36'622.1 090 / 221012.010.8 28.025.225.0
2019-Sep-16 02:44N 18°58' W 065°41'810.2
2019-Sep-16 01:56N 18°57' W 065°49'510.1
2019-Sep-16 01:27N 18°55' W 065°54'8 9.6
2019-Sep-16 00:34N 18°49' W 065°60'210.2
2019-Sep-16 00:24N 18°47' W 066°00'410.4
2019-Sep-15 23:59N 18°43' W 066°02'510.3
2019-Sep-15 23:30N 18°39' W 066°05'510.2
2019-Sep-15 23:00N 18°34' W 066°07'510.8
2019-Sep-15 22:30N 18°29' W 066°08'2 2.6
2019-Sep-15 21:55N 18°28' W 066°07'0 0.0
2019-Sep-15 21:28N 18°28' W 066°07'0 0.0
2019-Sep-15 20:58N 18°28' W 066°07'0 0.0
2019-Sep-15 20:30N 18°28' W 066°07'0 0.0
2019-Sep-15 19:51N 18°28' W 066°07'0 0.0
2019-Sep-15 19:27N 18°28' W 066°07'0 0.0
2019-Sep-15 18:57N 18°28' W 066°07'0 0.0
2019-Sep-15 18:24N 18°28' W 066°07'0 0.0
2019-Sep-15 17:59N 18°28' W 066°07'0 0.0
2019-Sep-15 17:29N 18°28' W 066°07'0 0.0
2019-Sep-15 16:59N 18°28' W 066°07'0 0.0
2019-Sep-15 16:26N 18°28' W 066°07'0 0.0
2019-Sep-15 15:58N 18°28' W 066°07'0 0.0
2019-Sep-15 15:28N 18°28' W 066°07'0 0.0
2019-Sep-15 14:58N 18°28' W 066°07'0 0.0
2019-Sep-15 14:28N 18°28' W 066°07'0 0.0
2019-Sep-15 13:58N 18°28' W 066°07'0 0.0
2019-Sep-15 13:30N 18°28' W 066°07'0 0.0
2019-Sep-15 13:00N 18°28' W 066°07'0 0.0
2019-Sep-15 12:30N 18°28' W 066°07'0 0.0
2019-Sep-15 11:59N 18°28' W 066°07'0 0.0
2019-Sep-15 11:31N 18°28' W 066°07'0 0.0
2019-Sep-15 11:01N 18°28' W 066°07'0 0.3
2019-Sep-15 10:31N 18°28' W 066°07'3 5.0
2019-Sep-15 10:01N 18°30' W 066°08'612.4
2019-Sep-15 09:30N 18°36' W 066°06'814.8
2019-Sep-15 09:00N 18°43' W 066°02'713.5
2019-Sep-15 08:31N 18°44' W 065°55'815.2
2019-Sep-15 08:01N 18°42' W 065°48'815.4
2019-Sep-15 07:31N 18°41' W 065°39'815.6
2019-Sep-15 07:01N 18°40' W 065°31'816.4
2019-Sep-15 06:31N 18°38' W 065°23'917.1
2019-Sep-15 06:01N 18°32' W 065°17'2109.0
2019-Sep-15 06:00N 18°30' W 065°18'817.4 100 / 201012.010.8 27.024.128.0
2019-Sep-15 05:31N 18°24' W 065°11'816.5
2019-Sep-15 05:01N 18°16' W 065°09'714.8
2019-Sep-15 04:30N 18°12' W 065°04'918.0
2019-Sep-15 04:00N 18°09' W 064°54'918.8
2019-Sep-15 03:31N 18°07' W 064°45'3 5.6
2019-Sep-15 03:00N 18°06' W 064°42'893.6 070 / 251012.0 5.4 28.025.227.0
2019-Sep-15 02:54N 18°04' W 064°33'14318.1
2019-Sep-14 19:00N 16°12' W 063°00'13915.6 070 / 251009.010.8 28.025.227.0
2019-Sep-14 10:06N 14°27' W 061°25'616.1
2019-Sep-14 09:43N 14°22' W 061°21'316.6
2019-Sep-14 09:30N 14°19' W 061°19'816.1
2019-Sep-14 09:00N 14°14' W 061°13'816.3
2019-Sep-14 08:30N 14°14' W 061°05'816.4
2019-Sep-14 08:01N 14°13' W 060°56'816.3
2019-Sep-14 07:30N 14°13' W 060°48'815.9
2019-Sep-14 06:58N 14°12' W 060°39'3216.0
2019-Sep-14 05:00N 13°48' W 060°18'12 0.5 040 / 51011.0 28.025.228.0
2019-Sep-13 05:00N 13°36' W 060°18'50 6.6 140 / 101015.010.8 28.025.226.0
2019-Sep-12 21:24N 14°02' W 061°02'3 3.4
2019-Sep-12 20:38N 14°01' W 060°60'0 0.0
2019-Sep-12 20:05N 14°01' W 060°60'0 0.0
2019-Sep-12 19:58N 14°01' W 060°60'0 0.0
2019-Sep-12 18:22N 14°01' W 060°60'0 0.0
2019-Sep-12 15:21N 14°01' W 060°60'0 0.0
2019-Sep-12 11:50N 14°01' W 060°60'0 0.1
2019-Sep-12 11:22N 14°01' W 060°60'3 6.2
2019-Sep-12 10:57N 14°02' W 061°02'410.1
2019-Sep-12 10:30N 14°05' W 061°05'510.7
2019-Sep-12 10:00N 14°09' W 061°10'816.3
2019-Sep-12 09:30N 14°15' W 061°15'916.4
2019-Sep-12 08:56N 14°22' W 061°21'4013.7
2019-Sep-12 06:00N 15°00' W 061°36'4816.0 120 / 10 10.8 28.025.228.0
2019-Sep-12 03:00N 15°42' W 062°00'111 6.3 090 / 121012.0 5.4 28.025.227.0
2019-Sep-11 09:27N 17°19' W 062°57'4 8.9
2019-Sep-11 09:00N 17°21' W 062°60'4 9.0
2019-Sep-11 08:30N 17°24' W 063°03'5 8.9
2019-Sep-11 07:57N 17°29' W 063°06'410.0
2019-Sep-11 07:30N 17°33' W 063°07'3 6.1
2019-Sep-11 07:00N 17°36' W 063°06'617.6 090 / 141012.010.8 28.026.626.0
2019-Sep-11 06:39N 17°42' W 063°08'4 9.4
2019-Sep-11 06:13N 17°45' W 063°10'410.0
2019-Sep-11 05:52N 17°47' W 063°14'5 9.9
2019-Sep-11 05:23N 17°49' W 063°18'5 9.5
2019-Sep-11 04:53N 17°52' W 063°22'5 9.2
2019-Sep-11 04:24N 17°53' W 063°27'12 9.7
2019-Sep-11 03:07N 17°53' W 063°40'3 9.3
2019-Sep-11 02:46N 17°54' W 063°43'3 8.7
2019-Sep-11 02:23N 17°57' W 063°44'8 9.6
2019-Sep-11 01:34N 18°05' W 063°44'13 6.6
2019-Sep-10 23:39N 18°05' W 063°31'5 9.9
2019-Sep-10 23:07N 18°02' W 063°26'8 9.5
2019-Sep-10 22:17N 18°01' W 063°18'810.9
2019-Sep-10 21:33N 18°01' W 063°09'111.1
2019-Sep-10 21:29N 18°01' W 063°08'510.4
2019-Sep-10 20:58N 18°01' W 063°03'0 0.1
2019-Sep-10 19:48N 18°01' W 063°03'0 0.0
2019-Sep-10 19:30N 18°01' W 063°03'0 0.0
2019-Sep-10 18:57N 18°01' W 063°03'0 0.0
2019-Sep-10 18:20N 18°01' W 063°03'0 0.0
2019-Sep-10 17:32N 18°01' W 063°03'0 0.0
2019-Sep-10 16:41N 18°01' W 063°03'0 0.0
2019-Sep-10 16:10N 18°01' W 063°03'0 0.0
2019-Sep-10 15:53N 18°01' W 063°03'0 0.0
2019-Sep-10 15:13N 18°01' W 063°03'0 0.0
2019-Sep-10 14:43N 18°01' W 063°03'0 0.0
2019-Sep-10 14:12N 18°01' W 063°03'0 0.0
2019-Sep-10 13:48N 18°01' W 063°03'0 0.0
2019-Sep-10 13:21N 18°01' W 063°03'0 0.0
2019-Sep-10 13:00N 18°01' W 063°03'0 0.0
2019-Sep-10 12:24N 18°01' W 063°03'0 0.0
2019-Sep-10 11:55N 18°01' W 063°03'1 0.8
2019-Sep-10 11:16N 18°00' W 063°03'4 8.5
2019-Sep-10 10:48N 18°00' W 063°07'3 8.8
2019-Sep-10 10:25N 18°01' W 063°11'4 8.3
2019-Sep-10 09:54N 18°01' W 063°15'610.0
2019-Sep-10 09:21N 18°01' W 063°21'610.2
2019-Sep-10 08:46N 18°01' W 063°28'4 9.5
2019-Sep-10 08:24N 18°02' W 063°31'4 9.4
2019-Sep-10 07:56N 18°03' W 063°36'610.1
2019-Sep-10 07:19N 18°09' W 063°38'310.5
2019-Sep-10 07:00N 18°12' W 063°36'54 7.8 120 / 151012.010.8 27.024.128.0
2019-Sep-10 00:07N 18°09' W 064°33'310.4
2019-Sep-09 23:51N 18°09' W 064°36'410.3
2019-Sep-09 23:29N 18°10' W 064°39'510.0
2019-Sep-09 23:00N 18°10' W 064°45'5 9.8
2019-Sep-09 22:30N 18°11' W 064°50'5 9.7
2019-Sep-09 21:59N 18°14' W 064°54'510.8
2019-Sep-09 21:30N 18°19' W 064°55'1 2.1
2019-Sep-09 20:51N 18°20' W 064°55'0 0.0
2019-Sep-09 20:27N 18°20' W 064°55'0 0.0
2019-Sep-09 19:57N 18°20' W 064°55'0 0.0
2019-Sep-09 19:27N 18°20' W 064°55'0 0.0
2019-Sep-09 18:57N 18°20' W 064°55'0 0.0
2019-Sep-09 18:26N 18°20' W 064°55'0 0.0
2019-Sep-09 17:56N 18°20' W 064°55'0 0.0
2019-Sep-09 17:26N 18°20' W 064°55'0 0.0
2019-Sep-09 16:50N 18°20' W 064°55'0 0.0
2019-Sep-09 16:25N 18°20' W 064°55'0 0.0
2019-Sep-09 15:55N 18°20' W 064°55'0 0.0
2019-Sep-09 15:25N 18°20' W 064°55'0 0.0
2019-Sep-09 14:43N 18°20' W 064°55'0 0.0
2019-Sep-09 14:25N 18°20' W 064°55'0 0.0
2019-Sep-09 13:48N 18°20' W 064°55'0 0.0
2019-Sep-09 13:30N 18°20' W 064°55'0 0.0
2019-Sep-09 13:00N 18°20' W 064°55'0 0.0
2019-Sep-09 12:30N 18°20' W 064°55'0 0.0
2019-Sep-09 12:00N 18°20' W 064°55'0 0.0
2019-Sep-09 11:30N 18°20' W 064°55'0 0.0
2019-Sep-09 11:01N 18°20' W 064°55'5 4.1
2019-Sep-09 09:50N 18°16' W 064°59'3 8.9
2019-Sep-09 09:29N 18°17' W 065°02'510.7
2019-Sep-09 09:00N 18°19' W 065°07'5 9.7
2019-Sep-09 08:30N 18°22' W 065°10'510.3
2019-Sep-09 08:00N 18°27' W 065°11'510.2
2019-Sep-09 07:30N 18°32' W 065°12'510.2
2019-Sep-09 07:01N 18°37' W 065°13'5 9.9
2019-Sep-09 06:30N 18°42' W 065°13'5 9.8
2019-Sep-09 06:00N 18°47' W 065°14'510.0
2019-Sep-09 05:31N 18°52' W 065°15'510.3
2019-Sep-09 05:00N 18°57' W 065°17'211309.7
2019-Sep-09 05:00N 18°36' W 065°12'2448.9 110 / 51011.010.8 27.024.128.0
2019-Sep-09 04:30N 18°58' W 065°22'510.3
2019-Sep-09 04:00N 18°58' W 065°28'4392.0
2019-Sep-09 04:00N 18°54' W 065°30'5 9.7 090 / 101013.010.8 28.025.227.0
2019-Sep-09 03:30N 18°58' W 065°33'610.4
2019-Sep-09 02:56N 18°58' W 065°39'1110.3
2019-Sep-09 01:50N 18°58' W 065°51'17 9.5
2019-Sep-09 00:06N 18°45' W 066°02'210.5
2019-Sep-08 23:54N 18°43' W 066°03'510.6
2019-Sep-08 23:26N 18°38' W 066°05'510.8
2019-Sep-08 23:00N 18°34' W 066°07'510.7
2019-Sep-08 22:31N 18°29' W 066°08'2 2.2
2019-Sep-08 21:50N 18°28' W 066°07'0 0.0
2019-Sep-08 21:20N 18°28' W 066°07'0 0.0
2019-Sep-08 20:58N 18°28' W 066°07'0 0.0
2019-Sep-08 20:25N 18°28' W 066°07'0 0.0
2019-Sep-08 19:58N 18°28' W 066°07'0 0.0
2019-Sep-08 19:25N 18°28' W 066°07'0 0.0
2019-Sep-08 18:19N 18°28' W 066°07'0 0.0
2019-Sep-08 17:54N 18°28' W 066°07'0 0.0
2019-Sep-08 17:30N 18°28' W 066°07'0 0.0
2019-Sep-08 17:00N 18°28' W 066°07'0 0.0
2019-Sep-08 16:11N 18°28' W 066°07'0 0.0
2019-Sep-08 15:59N 18°28' W 066°07'0 0.0
2019-Sep-08 15:29N 18°28' W 066°07'0 0.0
2019-Sep-08 14:56N 18°28' W 066°07'0 0.0
2019-Sep-08 14:23N 18°28' W 066°07'0 0.0
2019-Sep-08 13:52N 18°28' W 066°07'0 0.0
2019-Sep-08 13:22N 18°28' W 066°07'0 0.0
2019-Sep-08 12:58N 18°28' W 066°07'0 0.0
2019-Sep-08 12:22N 18°28' W 066°07'11 3.4
2019-Sep-08 09:01N 18°39' W 066°04'113.2
2019-Sep-08 08:56N 18°40' W 066°04'612.5
2019-Sep-08 08:28N 18°44' W 065°60'712.8
2019-Sep-08 07:57N 18°43' W 065°53'613.1
2019-Sep-08 07:31N 18°42' W 065°47'713.2
2019-Sep-08 07:01N 18°41' W 065°40'713.0
2019-Sep-08 06:30N 18°40' W 065°33'816.6
2019-Sep-08 06:00N 18°39' W 065°24'11720.5
2019-Sep-08 06:00N 18°30' W 065°18'3 5.4 060 / 71011.010.8 27.024.128.0
2019-Sep-08 05:30N 18°33' W 065°18'917.3
2019-Sep-08 05:00N 18°26' W 065°12'816.4
2019-Sep-08 04:30N 18°18' W 065°10'714.7
2019-Sep-08 04:00N 18°12' W 065°06'917.0
2019-Sep-08 03:30N 18°10' W 064°57'917.1
2019-Sep-08 03:00N 18°08' W 064°48'816.9
2019-Sep-08 02:30N 18°06' W 064°40'12716.9
2019-Sep-07 19:00N 16°30' W 063°12'16016.7 300 / 31011.010.8 27.024.128.0
2019-Sep-07 09:25N 14°27' W 061°26'817.9
2019-Sep-07 09:00N 14°21' W 061°21'917.6
2019-Sep-07 08:30N 14°15' W 061°15'917.7
2019-Sep-07 08:00N 14°13' W 061°06'  
Track history (hours):
 
Tides and Currents Weather Stations Pressure Air Temp Water Temp Dewpoint Dewpoint Depression Visibility Wind Speed Wind Dir Waves Ship Positions

Fascination

Operator: Carnival Cruise Lines

Last reported at 2019-Sep-17 07:57 UTC. Time now 2019-Sep-17 08:46 UTC.
Position N 18°03' W 063°35'.

Type: Ship. MMSI: 309682000.

Date/timePositionNaut miles runAvg speedWind from/ knotsBaromVisibWave heightAir tempDewpointWater temp
2019-Sep-17 07:57N 18°03' W 063°35'5 9.8
2019-Sep-17 07:25N 18°07' W 063°37'5 9.8
2019-Sep-17 06:55N 18°12' W 063°39'12 6.4
2019-Sep-17 05:00N 18°24' W 063°42'18 9.1 110 / 201010.010.8 28.023.727.0
2019-Sep-17 03:00N 18°18' W 064°00'3810.9 090 / 201012.0 5.4 28.025.225.0
2019-Sep-16 23:32N 18°10' W 064°39'410.3
2019-Sep-16 23:10N 18°10' W 064°43'210.3
2019-Sep-16 22:59N 18°10' W 064°44'510.5
2019-Sep-16 22:30N 18°11' W 064°50'510.3
2019-Sep-16 22:00N 18°14' W 064°54'510.0
2019-Sep-16 21:30N 18°19' W 064°55'1 1.9
2019-Sep-16 20:48N 18°20' W 064°55'0 0.0
2019-Sep-16 20:24N 18°20' W 064°55'0 0.0
2019-Sep-16 19:53N 18°20' W 064°55'0 0.0
2019-Sep-16 19:29N 18°20' W 064°55'0 0.0
2019-Sep-16 18:59N 18°20' W 064°55'0 0.0
2019-Sep-16 18:29N 18°20' W 064°55'0 0.0
2019-Sep-16 17:59N 18°20' W 064°55'0 0.0
2019-Sep-16 17:28N 18°20' W 064°55'0 0.0
2019-Sep-16 16:58N 18°20' W 064°55'0 0.0
2019-Sep-16 16:28N 18°20' W 064°55'0 0.0
2019-Sep-16 15:58N 18°20' W 064°55'0 0.0
2019-Sep-16 15:27N 18°20' W 064°55'0 0.0
2019-Sep-16 14:57N 18°20' W 064°55'0 0.0
2019-Sep-16 14:27N 18°20' W 064°55'0 0.0
2019-Sep-16 13:57N 18°20' W 064°55'0 0.0
2019-Sep-16 13:27N 18°20' W 064°55'0 0.0
2019-Sep-16 12:20N 18°20' W 064°55'0 0.0
2019-Sep-16 12:00N 18°20' W 064°55'0 0.0
2019-Sep-16 11:30N 18°20' W 064°55'0 0.0
2019-Sep-16 11:00N 18°20' W 064°55'0 0.9
2019-Sep-16 10:30N 18°20' W 064°56'3 6.9
2019-Sep-16 10:01N 18°17' W 064°57'5 9.2
2019-Sep-16 09:30N 18°17' W 065°02'5 9.7
2019-Sep-16 09:00N 18°19' W 065°07'5 9.2
2019-Sep-16 08:31N 18°22' W 065°10'510.1
2019-Sep-16 08:00N 18°27' W 065°11'5 9.4
2019-Sep-16 07:30N 18°31' W 065°12'5 9.0
2019-Sep-16 07:00N 18°36' W 065°12'510.4
2019-Sep-16 06:31N 18°41' W 065°13'510.4
2019-Sep-16 06:00N 18°46' W 065°14'510.2
2019-Sep-16 05:31N 18°51' W 065°15'510.4
2019-Sep-16 05:01N 18°56' W 065°16'5 9.6
2019-Sep-16 04:31N 18°58' W 065°21'510.5
2019-Sep-16 03:59N 18°58' W 065°27'710.4
2019-Sep-16 03:16N 18°58' W 065°35'414.9
2019-Sep-16 03:00N 18°54' W 065°36'622.1 090 / 221012.010.8 28.025.225.0
2019-Sep-16 02:44N 18°58' W 065°41'810.2
2019-Sep-16 01:56N 18°57' W 065°49'510.1
2019-Sep-16 01:27N 18°55' W 065°54'8 9.6
2019-Sep-16 00:34N 18°49' W 065°60'210.2
2019-Sep-16 00:24N 18°47' W 066°00'410.4
2019-Sep-15 23:59N 18°43' W 066°02'510.3
2019-Sep-15 23:30N 18°39' W 066°05'510.2
2019-Sep-15 23:00N 18°34' W 066°07'510.8
2019-Sep-15 22:30N 18°29' W 066°08'2 2.6
2019-Sep-15 21:55N 18°28' W 066°07'0 0.0
2019-Sep-15 21:28N 18°28' W 066°07'0 0.0
2019-Sep-15 20:58N 18°28' W 066°07'0 0.0
2019-Sep-15 20:30N 18°28' W 066°07'0 0.0
2019-Sep-15 19:51N 18°28' W 066°07'0 0.0
2019-Sep-15 19:27N 18°28' W 066°07'0 0.0
2019-Sep-15 18:57N 18°28' W 066°07'0 0.0
2019-Sep-15 18:24N 18°28' W 066°07'0 0.0
2019-Sep-15 17:59N 18°28' W 066°07'0 0.0
2019-Sep-15 17:29N 18°28' W 066°07'0 0.0
2019-Sep-15 16:59N 18°28' W 066°07'0 0.0
2019-Sep-15 16:26N 18°28' W 066°07'0 0.0
2019-Sep-15 15:58N 18°28' W 066°07'0 0.0
2019-Sep-15 15:28N 18°28' W 066°07'0 0.0
2019-Sep-15 14:58N 18°28' W 066°07'0 0.0
2019-Sep-15 14:28N 18°28' W 066°07'0 0.0
2019-Sep-15 13:58N 18°28' W 066°07'0 0.0
2019-Sep-15 13:30N 18°28' W 066°07'0 0.0
2019-Sep-15 13:00N 18°28' W 066°07'0 0.0
2019-Sep-15 12:30N 18°28' W 066°07'0 0.0
2019-Sep-15 11:59N 18°28' W 066°07'0 0.0
2019-Sep-15 11:31N 18°28' W 066°07'0 0.0
2019-Sep-15 11:01N 18°28' W 066°07'0 0.3
2019-Sep-15 10:31N 18°28' W 066°07'3 5.0
2019-Sep-15 10:01N 18°30' W 066°08'612.4
2019-Sep-15 09:30N 18°36' W 066°06'814.8
2019-Sep-15 09:00N 18°43' W 066°02'713.5
2019-Sep-15 08:31N 18°44' W 065°55'815.2
2019-Sep-15 08:01N 18°42' W 065°48'815.4
2019-Sep-15 07:31N 18°41' W 065°39'815.6
2019-Sep-15 07:01N 18°40' W 065°31'816.4
2019-Sep-15 06:31N 18°38' W 065°23'917.1
2019-Sep-15 06:01N 18°32' W 065°17'2109.0
2019-Sep-15 06:00N 18°30' W 065°18'817.4 100 / 201012.010.8 27.024.128.0
2019-Sep-15 05:31N 18°24' W 065°11'816.5
2019-Sep-15 05:01N 18°16' W 065°09'714.8
2019-Sep-15 04:30N 18°12' W 065°04'918.0
2019-Sep-15 04:00N 18°09' W 064°54'918.8
2019-Sep-15 03:31N 18°07' W 064°45'3 5.6
2019-Sep-15 03:00N 18°06' W 064°42'893.6 070 / 251012.0 5.4 28.025.227.0
2019-Sep-15 02:54N 18°04' W 064°33'14318.1
2019-Sep-14 19:00N 16°12' W 063°00'13915.6 070 / 251009.010.8 28.025.227.0
2019-Sep-14 10:06N 14°27' W 061°25'616.1
2019-Sep-14 09:43N 14°22' W 061°21'316.6
2019-Sep-14 09:30N 14°19' W 061°19'816.1
2019-Sep-14 09:00N 14°14' W 061°13'816.3
2019-Sep-14 08:30N 14°14' W 061°05'816.4
2019-Sep-14 08:01N 14°13' W 060°56'816.3
2019-Sep-14 07:30N 14°13' W 060°48'815.9
2019-Sep-14 06:58N 14°12' W 060°39'3216.0
2019-Sep-14 05:00N 13°48' W 060°18'12 0.5 040 / 51011.0 28.025.228.0
2019-Sep-13 05:00N 13°36' W 060°18'50 6.6 140 / 101015.010.8 28.025.226.0
2019-Sep-12 21:24N 14°02' W 061°02'3 3.4
2019-Sep-12 20:38N 14°01' W 060°60'0 0.0
2019-Sep-12 20:05N 14°01' W 060°60'0 0.0
2019-Sep-12 19:58N 14°01' W 060°60'0 0.0
2019-Sep-12 18:22N 14°01' W 060°60'0 0.0
2019-Sep-12 15:21N 14°01' W 060°60'0 0.0
2019-Sep-12 11:50N 14°01' W 060°60'0 0.1
2019-Sep-12 11:22N 14°01' W 060°60'3 6.2
2019-Sep-12 10:57N 14°02' W 061°02'410.1
2019-Sep-12 10:30N 14°05' W 061°05'510.7
2019-Sep-12 10:00N 14°09' W 061°10'816.3
2019-Sep-12 09:30N 14°15' W 061°15'916.4
2019-Sep-12 08:56N 14°22' W 061°21'4013.7
2019-Sep-12 06:00N 15°00' W 061°36'4816.0 120 / 10 10.8 28.025.228.0
2019-Sep-12 03:00N 15°42' W 062°00'111 6.3 090 / 121012.0 5.4 28.025.227.0
2019-Sep-11 09:27N 17°19' W 062°57'4 8.9
2019-Sep-11 09:00N 17°21' W 062°60'4 9.0
2019-Sep-11 08:30N 17°24' W 063°03'5 8.9
2019-Sep-11 07:57N 17°29' W 063°06'410.0
2019-Sep-11 07:30N 17°33' W 063°07'3 6.1
2019-Sep-11 07:00N 17°36' W 063°06'617.6 090 / 141012.010.8 28.026.626.0
2019-Sep-11 06:39N 17°42' W 063°08'4 9.4
2019-Sep-11 06:13N 17°45' W 063°10'410.0
2019-Sep-11 05:52N 17°47' W 063°14'5 9.9
2019-Sep-11 05:23N 17°49' W 063°18'5 9.5
2019-Sep-11 04:53N 17°52' W 063°22'5 9.2
2019-Sep-11 04:24N 17°53' W 063°27'12 9.7
2019-Sep-11 03:07N 17°53' W 063°40'3 9.3
2019-Sep-11 02:46N 17°54' W 063°43'3 8.7
2019-Sep-11 02:23N 17°57' W 063°44'8 9.6
2019-Sep-11 01:34N 18°05' W 063°44'13 6.6
2019-Sep-10 23:39N 18°05' W 063°31'5 9.9
2019-Sep-10 23:07N 18°02' W 063°26'8 9.5
2019-Sep-10 22:17N 18°01' W 063°18'810.9
2019-Sep-10 21:33N 18°01' W 063°09'111.1
2019-Sep-10 21:29N 18°01' W 063°08'510.4
2019-Sep-10 20:58N 18°01' W 063°03'0 0.1
2019-Sep-10 19:48N 18°01' W 063°03'0 0.0
2019-Sep-10 19:30N 18°01' W 063°03'0 0.0
2019-Sep-10 18:57N 18°01' W 063°03'0 0.0
2019-Sep-10 18:20N 18°01' W 063°03'0 0.0
2019-Sep-10 17:32N 18°01' W 063°03'0 0.0
2019-Sep-10 16:41N 18°01' W 063°03'0 0.0
2019-Sep-10 16:10N 18°01' W 063°03'0 0.0
2019-Sep-10 15:53N 18°01' W 063°03'0 0.0
2019-Sep-10 15:13N 18°01' W 063°03'0 0.0
2019-Sep-10 14:43N 18°01' W 063°03'0 0.0
2019-Sep-10 14:12N 18°01' W 063°03'0 0.0
2019-Sep-10 13:48N 18°01' W 063°03'0 0.0
2019-Sep-10 13:21N 18°01' W 063°03'0 0.0
2019-Sep-10 13:00N 18°01' W 063°03'0 0.0
2019-Sep-10 12:24N 18°01' W 063°03'0 0.0
2019-Sep-10 11:55N 18°01' W 063°03'1 0.8
2019-Sep-10 11:16N 18°00' W 063°03'4 8.5
2019-Sep-10 10:48N 18°00' W 063°07'3 8.8
2019-Sep-10 10:25N 18°01' W 063°11'4 8.3
2019-Sep-10 09:54N 18°01' W 063°15'610.0
2019-Sep-10 09:21N 18°01' W 063°21'610.2
2019-Sep-10 08:46N 18°01' W 063°28'4 9.5
2019-Sep-10 08:24N 18°02' W 063°31'4 9.4
2019-Sep-10 07:56N 18°03' W 063°36'610.1
2019-Sep-10 07:19N 18°09' W 063°38'310.5
2019-Sep-10 07:00N 18°12' W 063°36'54 7.8 120 / 151012.010.8 27.024.128.0
2019-Sep-10 00:07N 18°09' W 064°33'310.4
2019-Sep-09 23:51N 18°09' W 064°36'410.3
2019-Sep-09 23:29N 18°10' W 064°39'510.0
2019-Sep-09 23:00N 18°10' W 064°45'5 9.8
2019-Sep-09 22:30N 18°11' W 064°50'5 9.7
2019-Sep-09 21:59N 18°14' W 064°54'510.8
2019-Sep-09 21:30N 18°19' W 064°55'1 2.1
2019-Sep-09 20:51N 18°20' W 064°55'0 0.0
2019-Sep-09 20:27N 18°20' W 064°55'0 0.0
2019-Sep-09 19:57N 18°20' W 064°55'0 0.0
2019-Sep-09 19:27N 18°20' W 064°55'0 0.0
2019-Sep-09 18:57N 18°20' W 064°55'0 0.0
2019-Sep-09 18:26N 18°20' W 064°55'0 0.0
2019-Sep-09 17:56N 18°20' W 064°55'0 0.0
2019-Sep-09 17:26N 18°20' W 064°55'0 0.0
2019-Sep-09 16:50N 18°20' W 064°55'0 0.0
2019-Sep-09 16:25N 18°20' W 064°55'0 0.0
2019-Sep-09 15:55N 18°20' W 064°55'0 0.0
2019-Sep-09 15:25N 18°20' W 064°55'0 0.0
2019-Sep-09 14:43N 18°20' W 064°55'0 0.0
2019-Sep-09 14:25N 18°20' W 064°55'0 0.0
2019-Sep-09 13:48N 18°20' W 064°55'0 0.0
2019-Sep-09 13:30N 18°20' W 064°55'0 0.0
2019-Sep-09 13:00N 18°20' W 064°55'0 0.0
2019-Sep-09 12:30N 18°20' W 064°55'0 0.0
2019-Sep-09 12:00N 18°20' W 064°55'0 0.0
2019-Sep-09 11:30N 18°20' W 064°55'0 0.0
2019-Sep-09 11:01N 18°20' W 064°55'5 4.1
2019-Sep-09 09:50N 18°16' W 064°59'3 8.9
2019-Sep-09 09:29N 18°17' W 065°02'510.7
2019-Sep-09 09:00N 18°19' W 065°07'5 9.7
2019-Sep-09 08:30N 18°22' W 065°10'510.3
2019-Sep-09 08:00N 18°27' W 065°11'510.2
2019-Sep-09 07:30N 18°32' W 065°12'510.2
2019-Sep-09 07:01N 18°37' W 065°13'5 9.9
2019-Sep-09 06:30N 18°42' W 065°13'5 9.8
2019-Sep-09 06:00N 18°47' W 065°14'510.0
2019-Sep-09 05:31N 18°52' W 065°15'510.3
2019-Sep-09 05:00N 18°57' W 065°17'211309.7
2019-Sep-09 05:00N 18°36' W 065°12'2448.9 110 / 51011.010.8 27.024.128.0
2019-Sep-09 04:30N 18°58' W 065°22'510.3
2019-Sep-09 04:00N 18°58' W 065°28'4392.0
2019-Sep-09 04:00N 18°54' W 065°30'5 9.7 090 / 101013.010.8 28.025.227.0
2019-Sep-09 03:30N 18°58' W 065°33'610.4
2019-Sep-09 02:56N 18°58' W 065°39'1110.3
2019-Sep-09 01:50N 18°58' W 065°51'17 9.5
2019-Sep-09 00:06N 18°45' W 066°02'210.5
2019-Sep-08 23:54N 18°43' W 066°03'510.6
2019-Sep-08 23:26N 18°38' W 066°05'510.8
2019-Sep-08 23:00N 18°34' W 066°07'510.7
2019-Sep-08 22:31N 18°29' W 066°08'2 2.2
2019-Sep-08 21:50N 18°28' W 066°07'0 0.0
2019-Sep-08 21:20N 18°28' W 066°07'0 0.0
2019-Sep-08 20:58N 18°28' W 066°07'0 0.0
2019-Sep-08 20:25N 18°28' W 066°07'0 0.0
2019-Sep-08 19:58N 18°28' W 066°07'0 0.0
2019-Sep-08 19:25N 18°28' W 066°07'0 0.0
2019-Sep-08 18:19N 18°28' W 066°07'0 0.0
2019-Sep-08 17:54N 18°28' W 066°07'0 0.0
2019-Sep-08 17:30N 18°28' W 066°07'0 0.0
2019-Sep-08 17:00N 18°28' W 066°07'0 0.0
2019-Sep-08 16:11N 18°28' W 066°07'0 0.0
2019-Sep-08 15:59N 18°28' W 066°07'0 0.0
2019-Sep-08 15:29N 18°28' W 066°07'0 0.0
2019-Sep-08 14:56N 18°28' W 066°07'0 0.0
2019-Sep-08 14:23N 18°28' W 066°07'0 0.0
2019-Sep-08 13:52N 18°28' W 066°07'0 0.0
2019-Sep-08 13:22N 18°28' W 066°07'0 0.0
2019-Sep-08 12:58N 18°28' W 066°07'0 0.0
2019-Sep-08 12:22N 18°28' W 066°07'11 3.4
2019-Sep-08 09:01N 18°39' W 066°04'113.2
2019-Sep-08 08:56N 18°40' W 066°04'612.5
2019-Sep-08 08:28N 18°44' W 065°60'712.8
2019-Sep-08 07:57N 18°43' W 065°53'613.1
2019-Sep-08 07:31N 18°42' W 065°47'713.2
2019-Sep-08 07:01N 18°41' W 065°40'713.0
2019-Sep-08 06:30N 18°40' W 065°33'816.6
2019-Sep-08 06:00N 18°39' W 065°24'11720.5
2019-Sep-08 06:00N 18°30' W 065°18'3 5.4 060 / 71011.010.8 27.024.128.0
2019-Sep-08 05:30N 18°33' W 065°18'917.3
2019-Sep-08 05:00N 18°26' W 065°12'816.4
2019-Sep-08 04:30N 18°18' W 065°10'714.7
2019-Sep-08 04:00N 18°12' W 065°06'917.0
2019-Sep-08 03:30N 18°10' W 064°57'917.1
2019-Sep-08 03:00N 18°08' W 064°48'816.9
2019-Sep-08 02:30N 18°06' W 064°40'12716.9
2019-Sep-07 19:00N 16°30' W 063°12'16016.7 300 / 31011.010.8 27.024.128.0
2019-Sep-07 09:25N 14°27' W 061°26'817.9
2019-Sep-07 09:00N 14°21' W 061°21'917.6
2019-Sep-07 08:30N 14°15' W 061°15'917.7
2019-Sep-07 08:00N 14°13' W 061°06'  

Dump ship's entire track history